sensor_id;sensor_type;location;lat;lon;timestamp;P1;durP1;ratioP1;P2;durP2;ratioP2
23242;SDS011;11790;49.578;11.214;2022-12-05T00:04:26;36.03;;;20.27;;
23242;SDS011;11790;49.578;11.214;2022-12-05T00:09:26;37.10;;;19.70;;
23242;SDS011;11790;49.578;11.214;2022-12-05T00:14:27;39.97;;;20.17;;
23242;SDS011;11790;49.578;11.214;2022-12-05T00:19:27;38.05;;;20.10;;
23242;SDS011;11790;49.578;11.214;2022-12-05T00:24:27;37.35;;;19.15;;
23242;SDS011;11790;49.578;11.214;2022-12-05T00:29:27;40.35;;;20.83;;
23242;SDS011;11790;49.578;11.214;2022-12-05T00:34:28;44.00;;;21.80;;
23242;SDS011;11790;49.578;11.214;2022-12-05T00:39:28;38.50;;;20.73;;
23242;SDS011;11790;49.578;11.214;2022-12-05T00:44:28;43.58;;;20.65;;
23242;SDS011;11790;49.578;11.214;2022-12-05T00:49:28;39.72;;;20.25;;
23242;SDS011;11790;49.578;11.214;2022-12-05T00:54:28;42.25;;;20.70;;
23242;SDS011;11790;49.578;11.214;2022-12-05T00:59:29;42.58;;;20.65;;
23242;SDS011;11790;49.578;11.214;2022-12-05T01:04:29;45.60;;;21.90;;
23242;SDS011;11790;49.578;11.214;2022-12-05T01:09:29;53.97;;;22.45;;
23242;SDS011;11790;49.578;11.214;2022-12-05T01:14:29;48.10;;;22.90;;
23242;SDS011;11790;49.578;11.214;2022-12-05T01:19:30;43.28;;;21.77;;
23242;SDS011;11790;49.578;11.214;2022-12-05T01:24:31;46.70;;;22.25;;
23242;SDS011;11790;49.578;11.214;2022-12-05T01:29:31;41.35;;;20.83;;
23242;SDS011;11790;49.578;11.214;2022-12-05T01:34:31;42.53;;;20.37;;
23242;SDS011;11790;49.578;11.214;2022-12-05T01:39:31;40.67;;;20.30;;
23242;SDS011;11790;49.578;11.214;2022-12-05T01:49:33;40.90;;;21.58;;
23242;SDS011;11790;49.578;11.214;2022-12-05T01:54:35;44.30;;;22.40;;
23242;SDS011;11790;49.578;11.214;2022-12-05T01:59:40;40.47;;;21.48;;
23242;SDS011;11790;49.578;11.214;2022-12-05T02:04:47;42.70;;;19.98;;
23242;SDS011;11790;49.578;11.214;2022-12-05T02:09:50;42.25;;;20.95;;
23242;SDS011;11790;49.578;11.214;2022-12-05T02:19:57;42.67;;;20.58;;
23242;SDS011;11790;49.578;11.214;2022-12-05T02:25:33;40.15;;;20.05;;
23242;SDS011;11790;49.578;11.214;2022-12-05T02:45:48;42.53;;;21.15;;
23242;SDS011;11790;49.578;11.214;2022-12-05T02:50:49;42.22;;;21.48;;
23242;SDS011;11790;49.578;11.214;2022-12-05T02:55:51;45.35;;;22.38;;
23242;SDS011;11790;49.578;11.214;2022-12-05T03:00:55;42.63;;;21.27;;
23242;SDS011;11790;49.578;11.214;2022-12-05T03:05:59;42.75;;;21.45;;
23242;SDS011;11790;49.578;11.214;2022-12-05T03:11:00;38.83;;;19.92;;
23242;SDS011;11790;49.578;11.214;2022-12-05T03:16:03;41.85;;;20.10;;
23242;SDS011;11790;49.578;11.214;2022-12-05T03:21:10;39.17;;;19.45;;
23242;SDS011;11790;49.578;11.214;2022-12-05T03:31:33;34.47;;;19.55;;
23242;SDS011;11790;49.578;11.214;2022-12-05T03:36:38;33.67;;;17.97;;
23242;SDS011;11790;49.578;11.214;2022-12-05T03:41:40;31.15;;;16.45;;
23242;SDS011;11790;49.578;11.214;2022-12-05T03:46:51;33.80;;;16.73;;
23242;SDS011;11790;49.578;11.214;2022-12-05T03:56:58;28.73;;;15.98;;
23242;SDS011;11790;49.578;11.214;2022-12-05T04:02:00;30.35;;;15.93;;
23242;SDS011;11790;49.578;11.214;2022-12-05T04:07:04;29.80;;;16.75;;
23242;SDS011;11790;49.578;11.214;2022-12-05T04:12:07;29.70;;;15.85;;
23242;SDS011;11790;49.578;11.214;2022-12-05T04:22:14;28.48;;;15.27;;
23242;SDS011;11790;49.578;11.214;2022-12-05T04:27:22;28.63;;;15.13;;
23242;SDS011;11790;49.578;11.214;2022-12-05T04:32:25;30.08;;;16.55;;
23242;SDS011;11790;49.578;11.214;2022-12-05T04:37:26;24.88;;;15.48;;
23242;SDS011;11790;49.578;11.214;2022-12-05T04:42:29;31.45;;;16.33;;
23242;SDS011;11790;49.578;11.214;2022-12-05T04:47:33;28.75;;;16.00;;
23242;SDS011;11790;49.578;11.214;2022-12-05T04:52:35;26.45;;;14.88;;
23242;SDS011;11790;49.578;11.214;2022-12-05T04:57:39;25.30;;;14.15;;
23242;SDS011;11790;49.578;11.214;2022-12-05T05:02:44;22.15;;;12.90;;
23242;SDS011;11790;49.578;11.214;2022-12-05T05:07:46;21.83;;;12.73;;
23242;SDS011;11790;49.578;11.214;2022-12-05T05:12:47;21.40;;;12.55;;
23242;SDS011;11790;49.578;11.214;2022-12-05T05:17:47;22.70;;;13.18;;
23242;SDS011;11790;49.578;11.214;2022-12-05T05:22:47;22.98;;;12.25;;
23242;SDS011;11790;49.578;11.214;2022-12-05T05:27:52;21.38;;;10.93;;
23242;SDS011;11790;49.578;11.214;2022-12-05T05:32:52;20.23;;;11.43;;
23242;SDS011;11790;49.578;11.214;2022-12-05T05:37:52;20.85;;;10.75;;
23242;SDS011;11790;49.578;11.214;2022-12-05T05:42:53;18.02;;;10.18;;
23242;SDS011;11790;49.578;11.214;2022-12-05T05:47:53;16.25;;;9.00;;
23242;SDS011;11790;49.578;11.214;2022-12-05T05:52:53;16.05;;;9.05;;
23242;SDS011;11790;49.578;11.214;2022-12-05T05:57:53;13.33;;;9.00;;
23242;SDS011;11790;49.578;11.214;2022-12-05T06:02:54;14.10;;;8.07;;
23242;SDS011;11790;49.578;11.214;2022-12-05T06:07:54;10.85;;;6.95;;
23242;SDS011;11790;49.578;11.214;2022-12-05T06:12:55;11.52;;;7.30;;
23242;SDS011;11790;49.578;11.214;2022-12-05T06:17:55;12.88;;;7.72;;
23242;SDS011;11790;49.578;11.214;2022-12-05T06:22:55;12.50;;;7.28;;
23242;SDS011;11790;49.578;11.214;2022-12-05T06:27:55;12.18;;;7.63;;
23242;SDS011;11790;49.578;11.214;2022-12-05T06:32:56;14.82;;;7.60;;
23242;SDS011;11790;49.578;11.214;2022-12-05T06:37:56;14.20;;;7.63;;
23242;SDS011;11790;49.578;11.214;2022-12-05T06:42:56;12.75;;;7.38;;
23242;SDS011;11790;49.578;11.214;2022-12-05T06:47:56;13.82;;;8.23;;
23242;SDS011;11790;49.578;11.214;2022-12-05T06:52:57;13.18;;;8.10;;
23242;SDS011;11790;49.578;11.214;2022-12-05T06:57:57;11.63;;;7.38;;
23242;SDS011;11790;49.578;11.214;2022-12-05T07:02:57;17.35;;;10.38;;
23242;SDS011;11790;49.578;11.214;2022-12-05T07:07:57;23.83;;;12.80;;
23242;SDS011;11790;49.578;11.214;2022-12-05T07:12:58;23.65;;;12.35;;
23242;SDS011;11790;49.578;11.214;2022-12-05T07:17:58;27.65;;;13.23;;
23242;SDS011;11790;49.578;11.214;2022-12-05T07:22:58;27.95;;;13.27;;
23242;SDS011;11790;49.578;11.214;2022-12-05T07:27:59;26.75;;;12.95;;
23242;SDS011;11790;49.578;11.214;2022-12-05T07:32:59;30.88;;;13.93;;
23242;SDS011;11790;49.578;11.214;2022-12-05T07:37:59;29.00;;;13.75;;
23242;SDS011;11790;49.578;11.214;2022-12-05T07:43:00;31.08;;;14.30;;
23242;SDS011;11790;49.578;11.214;2022-12-05T07:48:00;26.42;;;13.05;;
23242;SDS011;11790;49.578;11.214;2022-12-05T07:53:00;32.75;;;14.68;;
23242;SDS011;11790;49.578;11.214;2022-12-05T07:58:00;34.10;;;14.77;;
23242;SDS011;11790;49.578;11.214;2022-12-05T08:03:01;32.10;;;15.13;;
23242;SDS011;11790;49.578;11.214;2022-12-05T08:08:02;34.03;;;15.88;;
23242;SDS011;11790;49.578;11.214;2022-12-05T08:13:02;37.95;;;15.93;;
23242;SDS011;11790;49.578;11.214;2022-12-05T08:18:02;34.30;;;15.32;;
23242;SDS011;11790;49.578;11.214;2022-12-05T08:23:03;34.97;;;15.13;;
23242;SDS011;11790;49.578;11.214;2022-12-05T08:28:03;41.70;;;15.55;;
23242;SDS011;11790;49.578;11.214;2022-12-05T08:33:03;29.47;;;13.87;;
23242;SDS011;11790;49.578;11.214;2022-12-05T08:38:03;33.55;;;13.95;;
23242;SDS011;11790;49.578;11.214;2022-12-05T08:43:04;30.77;;;14.10;;
23242;SDS011;11790;49.578;11.214;2022-12-05T08:48:04;41.53;;;13.82;;
23242;SDS011;11790;49.578;11.214;2022-12-05T08:53:04;30.40;;;14.65;;
23242;SDS011;11790;49.578;11.214;2022-12-05T08:58:05;29.70;;;13.48;;
23242;SDS011;11790;49.578;11.214;2022-12-05T09:03:05;30.70;;;13.93;;
23242;SDS011;11790;49.578;11.214;2022-12-05T09:08:06;30.75;;;12.50;;
23242;SDS011;11790;49.578;11.214;2022-12-05T09:13:06;31.05;;;13.35;;
23242;SDS011;11790;49.578;11.214;2022-12-05T09:18:06;28.95;;;13.35;;
23242;SDS011;11790;49.578;11.214;2022-12-05T09:23:06;28.67;;;13.20;;
23242;SDS011;11790;49.578;11.214;2022-12-05T09:28:06;29.92;;;13.48;;
23242;SDS011;11790;49.578;11.214;2022-12-05T09:33:08;28.35;;;13.48;;
23242;SDS011;11790;49.578;11.214;2022-12-05T09:38:08;33.47;;;15.20;;
23242;SDS011;11790;49.578;11.214;2022-12-05T09:43:14;27.65;;;12.77;;
23242;SDS011;11790;49.578;11.214;2022-12-05T09:48:19;30.55;;;14.05;;
23242;SDS011;11790;49.578;11.214;2022-12-05T09:53:23;28.77;;;13.02;;
23242;SDS011;11790;49.578;11.214;2022-12-05T10:04:13;32.45;;;14.38;;
23242;SDS011;11790;49.578;11.214;2022-12-05T10:19:32;31.05;;;14.48;;
23242;SDS011;11790;49.578;11.214;2022-12-05T10:24:43;28.30;;;13.45;;
23242;SDS011;11790;49.578;11.214;2022-12-05T10:34:45;30.50;;;14.45;;
23242;SDS011;11790;49.578;11.214;2022-12-05T10:39:45;29.50;;;14.32;;
23242;SDS011;11790;49.578;11.214;2022-12-05T10:44:46;35.08;;;15.18;;
23242;SDS011;11790;49.578;11.214;2022-12-05T10:49:47;41.60;;;16.55;;
23242;SDS011;11790;49.578;11.214;2022-12-05T10:54:53;28.90;;;14.68;;
23242;SDS011;11790;49.578;11.214;2022-12-05T10:59:55;38.58;;;16.30;;
23242;SDS011;11790;49.578;11.214;2022-12-05T11:04:55;31.92;;;15.20;;
23242;SDS011;11790;49.578;11.214;2022-12-05T11:10:00;32.97;;;15.43;;
23242;SDS011;11790;49.578;11.214;2022-12-05T11:25:30;31.60;;;14.53;;
23242;SDS011;11790;49.578;11.214;2022-12-05T11:30:30;29.80;;;14.27;;
23242;SDS011;11790;49.578;11.214;2022-12-05T11:35:30;34.40;;;16.23;;
23242;SDS011;11790;49.578;11.214;2022-12-05T11:45:52;35.90;;;15.77;;
23242;SDS011;11790;49.578;11.214;2022-12-05T11:51:05;35.15;;;15.70;;
23242;SDS011;11790;49.578;11.214;2022-12-05T12:01:30;35.25;;;15.63;;
23242;SDS011;11790;49.578;11.214;2022-12-05T12:11:53;35.17;;;16.17;;
23242;SDS011;11790;49.578;11.214;2022-12-05T12:22:10;27.27;;;13.32;;
23242;SDS011;11790;49.578;11.214;2022-12-05T12:27:23;35.50;;;15.32;;
23242;SDS011;11790;49.578;11.214;2022-12-05T12:38:02;33.00;;;15.35;;
23242;SDS011;11790;49.578;11.214;2022-12-05T12:48:26;24.80;;;12.75;;
23242;SDS011;11790;49.578;11.214;2022-12-05T13:04:10;29.08;;;14.35;;
23242;SDS011;11790;49.578;11.214;2022-12-05T13:09:17;27.27;;;13.50;;
23242;SDS011;11790;49.578;11.214;2022-12-05T13:14:19;25.10;;;12.88;;
23242;SDS011;11790;49.578;11.214;2022-12-05T13:19:26;23.95;;;12.15;;
23242;SDS011;11790;49.578;11.214;2022-12-05T13:24:27;27.15;;;12.75;;
23242;SDS011;11790;49.578;11.214;2022-12-05T13:29:32;22.95;;;11.27;;
23242;SDS011;11790;49.578;11.214;2022-12-05T13:39:38;27.05;;;13.77;;
23242;SDS011;11790;49.578;11.214;2022-12-05T13:45:04;24.35;;;12.88;;
23242;SDS011;11790;49.578;11.214;2022-12-05T14:00:26;30.13;;;13.85;;
23242;SDS011;11790;49.578;11.214;2022-12-05T14:05:40;26.65;;;13.23;;
23242;SDS011;11790;49.578;11.214;2022-12-05T14:15:45;30.25;;;13.00;;
23242;SDS011;11790;49.578;11.214;2022-12-05T14:20:47;26.55;;;12.50;;
23242;SDS011;11790;49.578;11.214;2022-12-05T14:36:18;24.73;;;13.38;;
23242;SDS011;11790;49.578;11.214;2022-12-05T14:41:33;25.00;;;14.02;;
23242;SDS011;11790;49.578;11.214;2022-12-05T14:46:34;27.60;;;14.50;;
23242;SDS011;11790;49.578;11.214;2022-12-05T14:56:39;27.60;;;14.25;;
23242;SDS011;11790;49.578;11.214;2022-12-05T15:06:53;30.23;;;15.15;;
23242;SDS011;11790;49.578;11.214;2022-12-05T15:11:54;23.73;;;12.82;;
23242;SDS011;11790;49.578;11.214;2022-12-05T15:16:55;25.38;;;13.50;;
23242;SDS011;11790;49.578;11.214;2022-12-05T15:21:59;26.33;;;13.75;;
23242;SDS011;11790;49.578;11.214;2022-12-05T15:27:00;29.65;;;15.38;;
23242;SDS011;11790;49.578;11.214;2022-12-05T15:32:03;28.95;;;14.23;;
23242;SDS011;11790;49.578;11.214;2022-12-05T15:42:08;30.13;;;14.00;;
23242;SDS011;11790;49.578;11.214;2022-12-05T15:47:20;28.55;;;13.45;;
23242;SDS011;11790;49.578;11.214;2022-12-05T15:57:27;30.05;;;14.95;;
23242;SDS011;11790;49.578;11.214;2022-12-05T16:02:40;28.92;;;14.63;;
23242;SDS011;11790;49.578;11.214;2022-12-05T16:07:47;29.23;;;14.57;;
23242;SDS011;11790;49.578;11.214;2022-12-05T16:12:49;29.48;;;14.90;;
23242;SDS011;11790;49.578;11.214;2022-12-05T16:17:57;30.55;;;14.68;;
23242;SDS011;11790;49.578;11.214;2022-12-05T16:23:02;28.33;;;14.20;;
23242;SDS011;11790;49.578;11.214;2022-12-05T16:33:11;30.55;;;15.65;;
23242;SDS011;11790;49.578;11.214;2022-12-05T16:48:31;25.70;;;14.67;;
23242;SDS011;11790;49.578;11.214;2022-12-05T16:53:32;24.73;;;13.67;;
23242;SDS011;11790;49.578;11.214;2022-12-05T16:58:33;26.13;;;13.77;;
23242;SDS011;11790;49.578;11.214;2022-12-05T17:03:34;23.73;;;13.18;;
23242;SDS011;11790;49.578;11.214;2022-12-05T17:08:34;32.90;;;13.60;;
23242;SDS011;11790;49.578;11.214;2022-12-05T17:13:34;21.15;;;12.27;;
23242;SDS011;11790;49.578;11.214;2022-12-05T17:18:34;22.65;;;12.45;;
23242;SDS011;11790;49.578;11.214;2022-12-05T17:23:35;22.02;;;12.63;;
23242;SDS011;11790;49.578;11.214;2022-12-05T17:28:35;20.40;;;11.88;;
23242;SDS011;11790;49.578;11.214;2022-12-05T17:33:35;23.00;;;13.10;;
23242;SDS011;11790;49.578;11.214;2022-12-05T17:38:35;24.48;;;14.05;;
23242;SDS011;11790;49.578;11.214;2022-12-05T17:43:36;36.42;;;18.02;;
23242;SDS011;11790;49.578;11.214;2022-12-05T17:48:36;22.50;;;13.17;;
23242;SDS011;11790;49.578;11.214;2022-12-05T17:53:36;20.00;;;11.70;;
23242;SDS011;11790;49.578;11.214;2022-12-05T17:58:37;17.05;;;10.23;;
23242;SDS011;11790;49.578;11.214;2022-12-05T18:03:37;18.95;;;10.40;;
23242;SDS011;11790;49.578;11.214;2022-12-05T18:08:38;17.42;;;10.80;;
23242;SDS011;11790;49.578;11.214;2022-12-05T18:13:39;19.13;;;10.85;;
23242;SDS011;11790;49.578;11.214;2022-12-05T18:18:39;17.20;;;10.38;;
23242;SDS011;11790;49.578;11.214;2022-12-05T18:23:39;19.73;;;11.88;;
23242;SDS011;11790;49.578;11.214;2022-12-05T18:28:39;23.90;;;12.47;;
23242;SDS011;11790;49.578;11.214;2022-12-05T18:33:40;31.70;;;14.85;;
23242;SDS011;11790;49.578;11.214;2022-12-05T18:38:41;37.88;;;19.10;;
23242;SDS011;11790;49.578;11.214;2022-12-05T18:43:42;22.35;;;13.32;;
23242;SDS011;11790;49.578;11.214;2022-12-05T18:48:42;24.10;;;13.88;;
23242;SDS011;11790;49.578;11.214;2022-12-05T18:53:43;23.03;;;12.80;;
23242;SDS011;11790;49.578;11.214;2022-12-05T18:58:54;28.48;;;15.15;;
23242;SDS011;11790;49.578;11.214;2022-12-05T19:03:58;25.30;;;15.68;;
23242;SDS011;11790;49.578;11.214;2022-12-05T19:09:03;23.75;;;14.63;;
23242;SDS011;11790;49.578;11.214;2022-12-05T19:14:04;27.95;;;15.60;;
23242;SDS011;11790;49.578;11.214;2022-12-05T19:19:05;26.23;;;16.90;;
23242;SDS011;11790;49.578;11.214;2022-12-05T19:24:07;28.05;;;14.93;;
23242;SDS011;11790;49.578;11.214;2022-12-05T19:29:09;37.30;;;21.15;;
23242;SDS011;11790;49.578;11.214;2022-12-05T19:34:10;27.50;;;16.13;;
23242;SDS011;11790;49.578;11.214;2022-12-05T19:44:10;38.45;;;19.50;;
23242;SDS011;11790;49.578;11.214;2022-12-05T19:49:11;29.07;;;16.97;;
23242;SDS011;11790;49.578;11.214;2022-12-05T19:54:12;26.08;;;14.90;;
23242;SDS011;11790;49.578;11.214;2022-12-05T19:59:13;26.13;;;14.15;;
23242;SDS011;11790;49.578;11.214;2022-12-05T20:04:15;23.00;;;13.00;;
23242;SDS011;11790;49.578;11.214;2022-12-05T20:09:16;22.90;;;13.25;;
23242;SDS011;11790;49.578;11.214;2022-12-05T20:14:16;27.10;;;15.48;;
23242;SDS011;11790;49.578;11.214;2022-12-05T20:19:16;28.42;;;17.65;;
23242;SDS011;11790;49.578;11.214;2022-12-05T20:24:17;33.78;;;17.70;;
23242;SDS011;11790;49.578;11.214;2022-12-05T20:29:17;28.23;;;16.13;;
23242;SDS011;11790;49.578;11.214;2022-12-05T20:34:17;29.10;;;16.70;;
23242;SDS011;11790;49.578;11.214;2022-12-05T20:39:17;31.30;;;17.52;;
23242;SDS011;11790;49.578;11.214;2022-12-05T20:44:18;28.17;;;16.00;;
23242;SDS011;11790;49.578;11.214;2022-12-05T20:49:18;26.77;;;15.43;;
23242;SDS011;11790;49.578;11.214;2022-12-05T20:54:18;27.55;;;15.93;;
23242;SDS011;11790;49.578;11.214;2022-12-05T20:59:18;24.92;;;14.80;;
23242;SDS011;11790;49.578;11.214;2022-12-05T21:04:19;26.88;;;15.13;;
23242;SDS011;11790;49.578;11.214;2022-12-05T21:09:19;30.38;;;16.25;;
23242;SDS011;11790;49.578;11.214;2022-12-05T21:14:26;30.05;;;16.25;;
23242;SDS011;11790;49.578;11.214;2022-12-05T21:19:26;26.27;;;15.93;;
23242;SDS011;11790;49.578;11.214;2022-12-05T21:24:27;27.40;;;15.40;;
23242;SDS011;11790;49.578;11.214;2022-12-05T21:29:27;25.38;;;15.18;;
23242;SDS011;11790;49.578;11.214;2022-12-05T21:34:28;24.55;;;15.00;;
23242;SDS011;11790;49.578;11.214;2022-12-05T21:39:28;24.83;;;15.02;;
23242;SDS011;11790;49.578;11.214;2022-12-05T21:44:28;27.38;;;15.45;;
23242;SDS011;11790;49.578;11.214;2022-12-05T21:49:29;29.08;;;17.65;;
23242;SDS011;11790;49.578;11.214;2022-12-05T21:54:29;30.80;;;17.60;;
23242;SDS011;11790;49.578;11.214;2022-12-05T21:59:29;31.83;;;17.57;;
23242;SDS011;11790;49.578;11.214;2022-12-05T22:04:31;34.58;;;20.20;;
23242;SDS011;11790;49.578;11.214;2022-12-05T22:09:31;36.88;;;20.85;;
23242;SDS011;11790;49.578;11.214;2022-12-05T22:14:32;34.53;;;20.23;;
23242;SDS011;11790;49.578;11.214;2022-12-05T22:19:32;32.30;;;18.30;;
23242;SDS011;11790;49.578;11.214;2022-12-05T22:24:32;31.17;;;17.25;;
23242;SDS011;11790;49.578;11.214;2022-12-05T22:29:32;29.90;;;16.38;;
23242;SDS011;11790;49.578;11.214;2022-12-05T22:34:32;26.58;;;14.88;;
23242;SDS011;11790;49.578;11.214;2022-12-05T22:39:33;24.27;;;14.35;;
23242;SDS011;11790;49.578;11.214;2022-12-05T22:44:33;25.27;;;15.93;;
23242;SDS011;11790;49.578;11.214;2022-12-05T22:49:33;24.63;;;15.07;;
23242;SDS011;11790;49.578;11.214;2022-12-05T22:54:33;29.25;;;16.38;;
23242;SDS011;11790;49.578;11.214;2022-12-05T22:59:34;29.48;;;17.48;;
23242;SDS011;11790;49.578;11.214;2022-12-05T23:04:34;31.77;;;17.23;;
23242;SDS011;11790;49.578;11.214;2022-12-05T23:09:34;32.03;;;18.10;;
23242;SDS011;11790;49.578;11.214;2022-12-05T23:14:34;33.55;;;18.70;;
23242;SDS011;11790;49.578;11.214;2022-12-05T23:19:35;35.75;;;19.65;;
23242;SDS011;11790;49.578;11.214;2022-12-05T23:24:35;38.78;;;21.60;;
23242;SDS011;11790;49.578;11.214;2022-12-05T23:29:35;36.92;;;20.83;;
23242;SDS011;11790;49.578;11.214;2022-12-05T23:34:35;46.88;;;22.83;;
23242;SDS011;11790;49.578;11.214;2022-12-05T23:39:36;39.30;;;21.33;;
23242;SDS011;11790;49.578;11.214;2022-12-05T23:44:36;38.85;;;20.80;;
23242;SDS011;11790;49.578;11.214;2022-12-05T23:49:36;46.00;;;22.98;;
23242;SDS011;11790;49.578;11.214;2022-12-05T23:54:36;46.58;;;24.45;;
23242;SDS011;11790;49.578;11.214;2022-12-05T23:59:37;48.58;;;23.33;;
